Time;durP1;ratioP1;P1;durP2;ratioP2;P2;SDS_P1;SDS_P2;PMS_P1;PMS_P2;Temp;Humidity;BMP_temperature;BMP_pressure;BME280_temperature;BME280_humidity;BME280_pressure;Samples;Min_cycle;Max_cycle;Signal;HPM_P1;HPM_P2
2022/07/28 00:01:54;;;;;;;0.00;0.00;;;;;;;17.74;56.19;101222.97;7363280;19;20019;-65
2022/07/28 00:04:19;;;;;;;0.00;0.00;;;;;;;17.73;56.70;101223.88;7363310;19;20153;-65
2022/07/28 00:06:44;;;;;;;0.10;0.10;;;;;;;17.73;56.49;101226.50;7363347;19;20022;-65
2022/07/28 00:09:10;;;;;;;0.00;0.00;;;;;;;17.71;56.46;101217.78;7363898;19;20034;-64
2022/07/28 00:11:35;;;;;;;0.00;0.00;;;;;;;17.70;56.70;101221.34;7363589;19;20014;-64
2022/07/28 00:14:01;;;;;;;0.10;0.10;;;;;;;17.69;56.93;101224.03;7364089;19;20025;-65
2022/07/28 00:16:26;;;;;;;0.00;0.00;;;;;;;17.67;56.73;101224.09;7362179;19;20049;-64
2022/07/28 00:18:52;;;;;;;0.00;0.00;;;;;;;17.63;56.83;101219.88;7359523;19;20011;-65
2022/07/28 00:21:18;;;;;;;0.00;0.00;;;;;;;17.47;57.10;101185.38;7362644;19;20026;-65
2022/07/28 00:23:43;;;;;;;0.00;0.00;;;;;;;17.60;57.09;101220.88;7359798;19;20030;-66
2022/07/28 00:26:10;;;;;;;0.10;0.10;;;;;;;17.59;57.30;101223.59;7362758;19;20122;-65
2022/07/28 00:28:36;;;;;;;0.00;0.00;;;;;;;17.58;56.95;101216.56;7363485;19;20013;-65
2022/07/28 00:31:03;;;;;;;0.00;0.00;;;;;;;17.56;57.25;101211.38;7363948;19;20477;-65
2022/07/28 00:33:28;;;;;;;0.00;0.00;;;;;;;17.54;57.17;101215.03;7362184;19;20094;-64
2022/07/28 00:35:53;;;;;;;0.05;0.05;;;;;;;17.54;57.50;101222.94;7361431;19;20081;-65
2022/07/28 00:38:19;;;;;;;0.00;0.00;;;;;;;17.52;57.21;101216.84;7363118;19;20065;-65
2022/07/28 00:43:28;;;;;;;0.00;0.00;;;;;;;17.49;57.25;101217.00;7358927;19;20055;-66
2022/07/28 00:45:54;;;;;;;0.00;0.00;;;;;;;17.47;57.53;101208.28;7364750;19;20410;-65
2022/07/28 00:48:19;;;;;;;0.00;0.00;;;;;;;17.40;57.43;101201.56;7361936;19;20010;-64
2022/07/28 00:50:45;;;;;;;0.00;0.00;;;;;;;17.45;57.16;101204.84;7364359;19;20013;-66
2022/07/28 00:53:10;;;;;;;0.00;0.00;;;;;;;17.40;57.25;101205.06;7360016;19;20013;-66
2022/07/28 00:55:38;;;;;;;0.00;0.00;;;;;;;17.41;57.52;101206.75;7361886;19;20620;-65
2022/07/28 00:58:04;;;;;;;0.10;0.10;;;;;;;17.40;57.43;101206.84;7361908;19;20441;-65
2022/07/28 01:00:29;;;;;;;0.00;0.00;;;;;;;17.28;57.51;101187.94;7363156;19;20478;-64
2022/07/28 01:02:55;;;;;;;0.00;0.00;;;;;;;17.36;57.88;101200.81;7364483;19;20023;-64
2022/07/28 01:05:21;;;;;;;0.00;0.00;;;;;;;17.33;57.90;101200.94;7359082;19;20079;-65
2022/07/28 01:08:01;;;;;;;0.00;0.00;;;;;;;17.35;56.67;101199.97;7356684;19;20034;-65
2022/07/28 01:10:39;;;;;;;0.00;0.00;;;;;;;17.33;57.08;101196.50;7362723;19;20017;-66
2022/07/28 01:13:13;;;;;;;0.03;0.03;;;;;;;17.29;57.25;101194.94;7361889;19;20017;-65
2022/07/28 01:16:08;;;;;;;0.03;0.03;;;;;;;17.28;57.72;101192.34;7360578;19;20038;-64
2022/07/28 01:18:47;;;;;;;0.10;0.10;;;;;;;17.28;57.11;101190.56;7258696;19;2004210;-65
2022/07/28 01:21:16;;;;;;;0.00;0.00;;;;;;;17.24;57.83;101189.00;7362983;19;20011;-66
2022/07/28 01:24:02;;;;;;;0.00;0.00;;;;;;;17.25;57.21;101181.94;7362488;19;20416;-65
2022/07/28 01:26:47;;;;;;;0.00;0.00;;;;;;;17.23;56.81;101183.78;7360722;19;20755;-65
2022/07/28 01:29:21;;;;;;;0.00;0.00;;;;;;;17.20;57.56;101184.78;7360345;19;20006;-64
2022/07/28 01:32:09;;;;;;;0.00;0.00;;;;;;;17.19;57.26;101188.34;7362628;19;20017;-65
2022/07/28 01:34:49;;;;;;;0.03;0.03;;;;;;;17.17;57.30;101189.31;7361232;19;20006;-65
2022/07/28 01:37:24;;;;;;;0.00;0.00;;;;;;;17.15;57.62;101181.47;7361017;19;20577;-65
2022/07/28 01:39:54;;;;;;;0.00;0.00;;;;;;;16.88;58.21;101136.00;7363054;19;20673;-66
2022/07/28 01:42:25;;;;;;;0.10;0.10;;;;;;;17.11;58.13;101177.25;7361604;19;20037;-66
2022/07/28 01:44:54;;;;;;;0.00;0.00;;;;;;;17.09;58.35;101181.75;7359202;19;20490;-65
2022/07/28 01:47:21;;;;;;;0.00;0.00;;;;;;;17.06;58.37;101171.31;7360148;19;20466;-65
2022/07/28 01:49:49;;;;;;;0.00;0.00;;;;;;;17.06;58.30;101176.59;7362800;19;21039;-65
2022/07/28 01:52:16;;;;;;;;;;;;;;;17.06;56.15;101173.94;7362194;19;20231;-66
2022/07/28 01:54:44;;;;;;;0.05;0.05;;;;;;;17.03;58.53;101171.41;7354976;19;19938;-64
2022/07/28 01:57:13;;;;;;;0.10;0.10;;;;;;;17.01;58.49;101174.13;7357762;19;20451;-65
2022/07/28 01:59:39;;;;;;;0.00;0.00;;;;;;;16.96;58.37;101167.34;7353968;19;20343;-65
2022/07/28 02:02:06;;;;;;;0.00;0.00;;;;;;;16.96;58.87;101164.69;7360573;19;20042;-66
2022/07/28 02:04:35;;;;;;;0.10;0.10;;;;;;;16.86;58.79;101149.25;7363960;19;20019;-65
2022/07/28 02:07:01;;;;;;;0.00;0.00;;;;;;;16.91;58.49;101161.38;7360040;19;20514;-66
2022/07/28 02:09:29;;;;;;;0.10;0.10;;;;;;;16.92;58.96;101148.13;7361555;19;20018;-65
2022/07/28 02:11:56;;;;;;;0.03;0.03;;;;;;;16.90;58.71;101154.41;7361278;19;20015;-65
2022/07/28 02:14:23;;;;;;;0.10;0.10;;;;;;;16.90;59.00;101150.00;7360257;19;20014;-64
2022/07/28 02:16:56;;;;;;;0.00;0.00;;;;;;;16.90;58.47;101143.84;7363604;19;20006;-66
2022/07/28 02:19:22;;;;;;;0.00;0.00;;;;;;;16.88;58.79;101145.69;7361851;19;20014;-65
2022/07/28 02:21:49;;;;;;;0.10;0.10;;;;;;;16.86;59.18;101143.13;7358445;19;20828;-65
2022/07/28 02:24:25;;;;;;;0.03;0.03;;;;;;;16.86;58.58;101130.78;7364350;19;20439;-65
2022/07/28 02:27:28;;;;;;;0.10;0.10;;;;;;;16.84;57.94;101135.28;7363375;19;20011;-65
2022/07/28 02:30:14;;;;;;;0.00;0.00;;;;;;;16.85;57.73;101134.34;7257959;19;2004316;-65
2022/07/28 02:32:51;;;;;;;0.00;0.00;;;;;;;16.83;58.49;101133.56;7361826;19;20021;-65
2022/07/28 02:35:38;;;;;;;0.10;0.10;;;;;;;16.79;57.96;101113.50;7362157;19;20021;-65
2022/07/28 02:38:06;;;;;;;;;;;;;;;16.80;56.81;101120.50;7362564;19;20562;-66
2022/07/28 02:40:36;;;;;;;0.00;0.00;;;;;;;16.78;58.60;101125.00;7362460;19;19915;-64
2022/07/28 02:43:05;;;;;;;0.00;0.00;;;;;;;16.76;59.44;101125.97;7360723;19;20010;-65
2022/07/28 02:45:34;;;;;;;0.10;0.10;;;;;;;16.66;59.35;101111.41;7360149;19;20014;-65
2022/07/28 02:48:05;;;;;;;0.00;0.00;;;;;;;16.73;59.09;101126.09;7360188;19;20024;-65
2022/07/28 02:50:31;;;;;;;0.10;0.10;;;;;;;16.67;59.16;101121.88;7357107;19;20462;-66
2022/07/28 02:53:00;;;;;;;0.00;0.00;;;;;;;16.69;59.60;101127.13;7362305;19;20020;-66
2022/07/28 02:55:27;;;;;;;0.05;0.05;;;;;;;16.68;59.42;101125.41;7356905;19;20029;-65
2022/07/28 02:57:54;;;;;;;0.10;0.10;;;;;;;16.67;59.86;101121.03;7359551;19;20030;-65
2022/07/28 03:00:21;;;;;;;0.00;0.00;;;;;;;16.66;59.65;101119.31;7359552;19;21018;-65
2022/07/28 03:02:47;;;;;;;0.00;0.00;;;;;;;16.57;59.70;101104.72;7360684;19;20007;-65
2022/07/28 03:05:14;;;;;;;0.03;0.03;;;;;;;16.54;59.82;101102.22;7350332;19;20770;-64
2022/07/28 03:07:41;;;;;;;0.00;0.00;;;;;;;16.61;59.92;101112.44;7366694;19;20033;-66
2022/07/28 03:10:06;;;;;;;0.00;0.00;;;;;;;16.65;59.98;101117.59;7368742;19;20497;-64
2022/07/28 03:12:32;;;;;;;0.00;0.00;;;;;;;16.65;60.10;101114.97;7366398;19;20528;-65
2022/07/28 03:14:57;;;;;;;0.10;0.10;;;;;;;16.59;59.92;101100.25;7370034;19;20110;-66
2022/07/28 03:17:23;;;;;;;0.00;0.00;;;;;;;16.53;59.84;101093.47;7366796;19;20010;-65
2022/07/28 03:19:48;;;;;;;0.00;0.00;;;;;;;16.64;60.02;101108.84;7359396;19;20014;-65
2022/07/28 03:22:14;;;;;;;0.00;0.00;;;;;;;16.64;60.17;101108.00;7368995;19;20010;-66
2022/07/28 03:24:48;;;;;;;0.00;0.00;;;;;;;16.63;59.65;101101.84;7366529;19;20010;-65
2022/07/28 03:27:23;;;;;;;0.00;0.00;;;;;;;16.66;59.23;101108.78;7367891;19;20026;-65
2022/07/28 03:29:56;;;;;;;0.00;0.00;;;;;;;16.62;59.63;101102.75;7369299;19;20014;-66
2022/07/28 03:32:24;;;;;;;0.00;0.00;;;;;;;16.61;59.86;101095.78;7366736;19;20642;-65
2022/07/28 03:34:51;;;;;;;0.08;0.08;;;;;;;16.59;60.28;101103.75;7369663;19;20779;-66
2022/07/28 03:37:22;;;;;;;0.00;0.00;;;;;;;16.52;60.00;101088.22;7367504;19;20006;-65
2022/07/28 03:39:50;;;;;;;0.00;0.00;;;;;;;16.59;60.17;101102.91;7367881;19;20006;-66
2022/07/28 03:42:17;;;;;;;0.00;0.00;;;;;;;16.58;60.37;101103.81;7365906;19;20353;-66
2022/07/28 03:44:45;;;;;;;0.10;0.10;;;;;;;16.57;60.20;101110.00;7368427;19;20007;-65
2022/07/28 03:47:11;;;;;;;0.00;0.00;;;;;;;16.52;60.54;101093.50;7365032;19;20077;-66
2022/07/28 03:49:37;;;;;;;0.05;0.05;;;;;;;16.54;60.33;101104.88;7366826;19;20035;-66
2022/07/28 03:52:03;;;;;;;0.00;0.00;;;;;;;16.32;60.33;101068.84;7368274;19;20034;-65
2022/07/28 03:54:28;;;;;;;0.00;0.00;;;;;;;16.45;60.50;101090.28;7367670;19;20030;-65
2022/07/28 03:56:54;;;;;;;0.00;0.00;;;;;;;16.45;60.44;101095.53;7362523;19;20007;-65
2022/07/28 03:59:20;;;;;;;0.00;0.00;;;;;;;16.53;60.66;101103.16;7368483;19;20006;-65
2022/07/28 04:01:45;;;;;;;0.00;0.00;;;;;;;16.53;60.94;101104.00;7365448;19;20021;-65
2022/07/28 04:04:11;;;;;;;0.00;0.00;;;;;;;16.53;60.86;101100.53;7368561;19;20006;-65
2022/07/28 04:06:36;;;;;;;0.10;0.10;;;;;;;16.53;60.75;101103.16;7366599;19;20022;-66
2022/07/28 04:09:02;;;;;;;0.00;0.00;;;;;;;16.45;60.97;101089.41;7365772;19;20035;-66
2022/07/28 04:11:28;;;;;;;0.00;0.00;;;;;;;16.53;60.92;101103.16;7366882;19;20014;-65
2022/07/28 04:13:54;;;;;;;0.00;0.00;;;;;;;16.42;60.83;101074.56;7366895;19;20377;-65
2022/07/28 04:16:20;;;;;;;0.00;0.00;;;;;;;16.47;61.12;101087.56;7370305;19;20544;-66
2022/07/28 04:18:46;;;;;;;0.00;0.00;;;;;;;16.54;60.97;101096.97;7365171;19;20011;-65
2022/07/28 04:21:12;;;;;;;0.00;0.00;;;;;;;16.53;61.46;101089.97;7365017;19;20055;-65
2022/07/28 04:23:37;;;;;;;0.00;0.00;;;;;;;16.53;61.44;101098.75;7368304;19;20088;-65
2022/07/28 04:26:03;;;;;;;0.00;0.00;;;;;;;16.48;61.21;101089.31;7367235;19;20006;-65
2022/07/28 04:28:28;;;;;;;0.00;0.00;;;;;;;16.55;61.14;101101.31;7366674;19;20006;-65
2022/07/28 04:30:54;;;;;;;0.00;0.00;;;;;;;16.55;61.31;101098.66;7364335;19;20090;-64
2022/07/28 04:33:19;;;;;;;0.00;0.00;;;;;;;16.53;61.19;101093.47;7367417;19;20019;-65
2022/07/28 04:35:45;;;;;;;0.00;0.00;;;;;;;16.53;61.13;101087.34;7364846;19;20015;-66
2022/07/28 04:38:13;;;;;;;0.00;0.00;;;;;;;16.55;61.49;101088.97;7367107;19;20014;-65
2022/07/28 04:40:39;;;;;;;0.00;0.00;;;;;;;16.56;61.16;101093.31;7365597;19;20023;-66
2022/07/28 04:43:04;;;;;;;0.10;0.10;;;;;;;16.49;61.52;101080.47;7366668;19;21302;-65
2022/07/28 04:45:30;;;;;;;0.00;0.00;;;;;;;16.58;61.39;101102.03;7363966;19;20454;-66
2022/07/28 04:47:55;;;;;;;0.00;0.00;;;;;;;16.59;61.33;101092.34;7366574;19;20545;-66
2022/07/28 04:50:21;;;;;;;0.03;0.03;;;;;;;16.59;61.66;101092.34;7365748;19;20062;-65
2022/07/28 04:52:49;;;;;;;0.00;0.00;;;;;;;16.59;61.73;101098.47;7363659;19;20022;-64
2022/07/28 04:55:16;;;;;;;0.00;0.00;;;;;;;16.60;61.61;101094.06;7367840;19;20017;-65
2022/07/28 04:57:42;;;;;;;0.10;0.10;;;;;;;16.59;61.70;101098.47;7362444;19;20396;-64
2022/07/28 05:00:12;;;;;;;0.00;0.00;;;;;;;16.59;61.54;101092.34;7366177;19;20014;-65
2022/07/28 05:02:38;;;;;;;0.10;0.10;;;;;;;16.59;61.54;101095.00;7365708;19;20030;-65
2022/07/28 05:05:04;;;;;;;0.00;0.00;;;;;;;16.59;61.63;101087.06;7362977;19;20011;-65
2022/07/28 05:07:30;;;;;;;0.00;0.00;;;;;;;16.59;61.78;101092.34;7364983;19;20078;-64
2022/07/28 05:09:55;;;;;;;0.10;0.10;;;;;;;16.47;61.66;101066.47;7366108;19;20018;-65
2022/07/28 05:12:20;;;;;;;0.10;0.10;;;;;;;16.58;61.49;101080.09;7365786;19;20034;-65
2022/07/28 05:14:46;;;;;;;0.03;0.03;;;;;;;16.53;61.62;101076.78;7364345;19;20014;-65
2022/07/28 05:17:12;;;;;;;0.00;0.00;;;;;;;16.52;61.92;101075.06;7364533;19;20366;-64
2022/07/28 05:19:37;;;;;;;0.10;0.10;;;;;;;16.49;61.75;101075.19;7365749;19;20011;-66
2022/07/28 05:22:03;;;;;;;0.00;0.00;;;;;;;16.60;61.83;101096.69;7362748;19;20010;-66
2022/07/28 05:24:28;;;;;;;0.00;0.00;;;;;;;16.58;61.74;101090.66;7364031;19;20034;-65
2022/07/28 05:26:54;;;;;;;0.00;0.00;;;;;;;16.40;61.87;101051.84;7363551;19;20020;-65
2022/07/28 05:29:19;;;;;;;0.10;0.10;;;;;;;16.61;61.49;101090.50;7360841;19;20737;-64
2022/07/28 05:31:44;;;;;;;0.10;0.10;;;;;;;16.61;61.73;101088.72;7364212;19;20014;-65
2022/07/28 05:34:10;;;;;;;0.05;0.05;;;;;;;16.62;62.16;101092.22;7365022;19;20027;-65
2022/07/28 05:36:35;;;;;;;0.00;0.00;;;;;;;16.64;61.86;101098.28;7363967;19;20016;-65
2022/07/28 05:39:01;;;;;;;0.10;0.10;;;;;;;16.64;61.90;101090.38;7366052;19;20010;-66
2022/07/28 05:41:27;;;;;;;0.10;0.10;;;;;;;16.66;61.73;101098.22;7363254;19;20014;-65
2022/07/28 05:43:52;;;;;;;0.10;0.10;;;;;;;16.47;61.74;101056.78;7365693;19;20010;-65
2022/07/28 05:46:18;;;;;;;0.00;0.00;;;;;;;16.71;62.11;101101.53;7364584;19;20023;-66
2022/07/28 05:48:44;;;;;;;0.00;0.00;;;;;;;16.73;61.68;101097.09;7364152;19;20010;-66
2022/07/28 05:51:10;;;;;;;0.00;0.00;;;;;;;16.71;62.26;101090.97;7363520;19;20745;-65
2022/07/28 05:53:35;;;;;;;0.00;0.00;;;;;;;16.77;62.22;101102.16;7363925;19;20010;-65
2022/07/28 05:56:01;;;;;;;0.00;0.00;;;;;;;16.80;61.91;101096.75;7365178;19;21726;-65
2022/07/28 05:58:26;;;;;;;0.10;0.10;;;;;;;16.82;62.31;101089.63;7356162;19;20011;-66
2022/07/28 06:00:51;;;;;;;0.00;0.00;;;;;;;16.85;61.86;101086.88;7363823;19;20074;-66
2022/07/28 06:03:18;;;;;;;0.10;0.10;;;;;;;16.88;62.04;101087.66;7360735;19;20073;-66
2022/07/28 06:05:43;;;;;;;0.10;0.10;;;;;;;16.91;61.97;101087.53;7361880;19;20603;-65
2022/07/28 06:08:09;;;;;;;0.10;0.10;;;;;;;16.86;61.54;101074.53;7362647;19;20015;-65
2022/07/28 06:13:19;;;;;;;0.10;0.10;;;;;;;17.01;61.32;101091.47;7362071;19;20026;-65
2022/07/28 06:15:46;;;;;;;0.10;0.10;;;;;;;17.05;61.62;101090.44;7364586;19;20018;-66
2022/07/28 06:18:12;;;;;;;0.10;0.10;;;;;;;17.08;61.44;101087.66;7362636;19;20138;-65
2022/07/28 06:20:37;;;;;;;0.00;0.00;;;;;;;17.09;61.19;101086.75;7364012;19;20021;-66
2022/07/28 06:23:03;;;;;;;0.00;0.00;;;;;;;17.16;61.57;101092.59;7359645;19;20021;-65
2022/07/28 06:25:30;;;;;;;0.00;0.00;;;;;;;17.16;61.80;101093.47;7363496;19;21548;-64
2022/07/28 06:27:57;;;;;;;0.00;0.00;;;;;;;17.17;61.40;101084.59;7361503;19;20039;-64
2022/07/28 06:30:23;;;;;;;0.00;0.00;;;;;;;17.24;61.12;101091.34;7359585;19;20452;-64
2022/07/28 06:32:49;;;;;;;0.10;0.10;;;;;;;17.29;61.41;101099.06;7360097;19;20006;-66
2022/07/28 06:35:16;;;;;;;0.00;0.00;;;;;;;17.29;61.61;101094.66;7358762;19;20811;-65
2022/07/28 06:37:42;;;;;;;0.00;0.00;;;;;;;17.35;60.93;101099.66;7365092;19;20010;-65
2022/07/28 06:40:10;;;;;;;0.00;0.00;;;;;;;17.38;61.21;101094.22;7356558;19;21114;-65
2022/07/28 06:42:36;;;;;;;0.00;0.00;;;;;;;17.41;61.14;101095.88;7361793;19;20790;-65
2022/07/28 06:45:03;;;;;;;0.00;0.00;;;;;;;17.47;60.93;101102.66;7360346;19;20019;-65
2022/07/28 06:47:28;;;;;;;0.00;0.00;;;;;;;17.51;61.20;101104.25;7364060;19;20007;-65
2022/07/28 06:49:53;;;;;;;0.00;0.00;;;;;;;17.56;60.66;101102.25;7359543;19;20033;-66
2022/07/28 06:52:20;;;;;;;0.10;0.10;;;;;;;17.60;60.69;101103.81;7362314;19;20014;-65
2022/07/28 06:54:49;;;;;;;0.08;0.08;;;;;;;17.63;60.86;101103.66;7357722;19;20002;-65
2022/07/28 06:57:14;;;;;;;0.00;0.00;;;;;;;17.69;60.73;101108.69;7358341;19;20691;-65
2022/07/28 06:59:40;;;;;;;0.00;0.00;;;;;;;17.72;60.64;101108.53;7338640;19;20007;-64
2022/07/28 07:02:05;;;;;;;0.00;0.00;;;;;;;17.77;60.37;101106.56;7348685;19;20070;-64
2022/07/28 07:04:31;;;;;;;0.10;0.10;;;;;;;17.82;60.72;101114.28;7356894;19;20034;-65
2022/07/28 07:06:56;;;;;;;0.10;0.10;;;;;;;17.84;60.38;101104.50;7353080;19;20018;-65
2022/07/28 07:09:22;;;;;;;0.10;0.10;;;;;;;17.91;60.33;101110.38;7350367;19;20010;-65
2022/07/28 07:11:47;;;;;;;0.10;0.10;;;;;;;17.83;60.40;101087.78;7350684;19;20064;-65
2022/07/28 07:14:12;;;;;;;0.00;0.00;;;;;;;17.98;60.33;101106.50;7350337;19;20011;-64
2022/07/28 07:16:38;;;;;;;0.00;0.00;;;;;;;18.05;59.90;101103.50;7358342;19;20019;-65
2022/07/28 07:19:03;;;;;;;0.10;0.10;;;;;;;18.11;59.83;101102.38;7355047;19;20006;-64
2022/07/28 07:21:29;;;;;;;0.10;0.10;;;;;;;18.16;60.07;101103.00;7354222;19;20029;-66
2022/07/28 07:23:54;;;;;;;0.00;0.00;;;;;;;18.21;59.88;101101.00;7350211;19;20013;-64
2022/07/28 07:26:19;;;;;;;0.00;0.00;;;;;;;18.28;59.72;101107.69;7346525;19;20062;-65
2022/07/28 07:28:45;;;;;;;0.10;0.10;;;;;;;18.34;59.73;101107.38;7355221;19;20437;-65
2022/07/28 07:31:10;;;;;;;0.10;0.10;;;;;;;18.39;59.27;101105.38;7350946;19;20454;-66
2022/07/28 07:33:36;;;;;;;0.10;0.10;;;;;;;18.47;59.56;101107.66;7353405;19;20031;-65
2022/07/28 07:36:01;;;;;;;0.00;0.00;;;;;;;18.54;59.04;101105.56;7353421;19;20006;-66
2022/07/28 07:38:27;;;;;;;0.10;0.10;;;;;;;18.61;59.25;101112.28;7353424;19;20006;-65
2022/07/28 07:40:52;;;;;;;0.00;0.00;;;;;;;18.68;58.67;101116.34;7355738;19;20006;-66
2022/07/28 07:43:18;;;;;;;0.00;0.00;;;;;;;18.64;58.72;101094.44;7350067;19;20006;-65
2022/07/28 07:45:43;;;;;;;0.10;0.10;;;;;;;18.81;58.75;101114.81;7359642;19;20010;-65
2022/07/28 07:48:08;;;;;;;0.00;0.00;;;;;;;18.87;58.82;101117.13;7356066;19;20015;-65
2022/07/28 07:50:34;;;;;;;0.03;0.03;;;;;;;18.86;58.25;101093.41;7351241;19;20011;-65
2022/07/28 07:53:00;;;;;;;0.10;0.10;;;;;;;19.00;58.02;101100.63;7359599;19;20010;-65
2022/07/28 07:55:26;;;;;;;0.00;0.00;;;;;;;19.11;58.30;101104.44;7364229;19;20034;-65
2022/07/28 07:57:51;;;;;;;0.00;0.00;;;;;;;19.19;57.94;101111.97;7361293;19;20017;-64
2022/07/28 08:00:17;;;;;;;0.08;0.08;;;;;;;19.25;57.56;101100.22;7363589;19;20048;-65
2022/07/28 08:02:42;;;;;;;0.10;0.10;;;;;;;19.33;57.56;101106.81;7363152;19;20010;-65
2022/07/28 08:05:08;;;;;;;0.10;0.10;;;;;;;19.40;57.37;101112.66;7360858;19;20030;-65
2022/07/28 08:07:35;;;;;;;0.10;0.10;;;;;;;19.41;57.49;101112.59;7331290;19;20029;-65
2022/07/28 08:10:00;;;;;;;0.00;0.00;;;;;;;19.52;56.92;101108.50;7356564;19;20564;-65
2022/07/28 08:12:26;;;;;;;0.00;0.00;;;;;;;19.57;55.98;101107.31;7360720;19;20003;-64
2022/07/28 08:14:52;;;;;;;0.00;0.00;;;;;;;19.36;56.98;101071.38;7364102;19;20006;-65
2022/07/28 08:17:18;;;;;;;0.00;0.00;;;;;;;19.61;56.74;101094.78;7361866;19;20453;-65
2022/07/28 08:19:43;;;;;;;0.00;0.00;;;;;;;19.71;56.51;101103.94;7349866;19;20014;-65
2022/07/28 08:22:09;;;;;;;0.10;0.10;;;;;;;19.75;56.65;101088.72;7346224;19;20022;-65
2022/07/28 08:24:34;;;;;;;0.10;0.10;;;;;;;19.91;56.66;101106.34;7344837;19;20027;-64
2022/07/28 08:27:01;;;;;;;0.03;0.03;;;;;;;19.87;56.27;101094.22;7346942;19;20875;-64
2022/07/28 08:29:26;;;;;;;0.10;0.10;;;;;;;20.11;56.18;101101.75;7348607;19;20265;-65
2022/07/28 08:31:51;;;;;;;0.10;0.10;;;;;;;20.20;55.38;101102.09;7347900;19;20006;-65
2022/07/28 08:34:17;;;;;;;0.08;0.08;;;;;;;20.35;55.81;101110.97;7351206;19;20006;-65
2022/07/28 08:36:42;;;;;;;0.08;0.08;;;;;;;20.47;54.49;101110.28;7358702;19;20006;-65
2022/07/28 08:39:08;;;;;;;0.10;0.10;;;;;;;20.56;54.74;101113.38;7365953;19;20034;-65
2022/07/28 08:41:58;;;;;;;0.10;0.10;;;;;;;20.72;55.00;101108.88;7363325;19;20041;-65
2022/07/28 08:44:32;;;;;;;0.10;0.10;;;;;;;20.76;54.15;101105.09;7365085;19;20003;-65
2022/07/28 08:46:58;;;;;;;0.10;0.10;;;;;;;20.80;54.29;101114.59;7365191;19;20011;-65
2022/07/28 08:49:25;;;;;;;0.00;0.00;;;;;;;20.83;54.75;101100.28;7351918;19;20066;-65
2022/07/28 08:51:53;;;;;;;0.10;0.10;;;;;;;20.95;54.50;101104.88;7350175;19;20604;-65
2022/07/28 08:54:21;;;;;;;0.10;0.10;;;;;;;21.07;54.44;101113.88;7363847;19;20825;-65
2022/07/28 08:56:48;;;;;;;0.05;0.05;;;;;;;21.15;53.56;101116.97;7365654;19;20018;-65
2022/07/28 08:59:13;;;;;;;0.00;0.00;;;;;;;21.20;53.40;101109.56;7364904;19;20018;-66
2022/07/28 09:01:39;;;;;;;0.10;0.10;;;;;;;21.26;53.41;101109.19;7364840;19;20751;-65
2022/07/28 09:04:08;;;;;;;0.00;0.00;;;;;;;21.30;53.06;101094.81;7364306;19;20010;-66
2022/07/28 09:06:36;;;;;;;0.10;0.10;;;;;;;21.40;52.46;101106.56;7364961;19;20011;-66
2022/07/28 09:09:02;;;;;;;0.00;0.00;;;;;;;21.36;53.16;101091.78;7363848;19;20034;-64
2022/07/28 09:11:27;;;;;;;0.10;0.10;;;;;;;21.48;53.26;101093.66;7366457;19;20011;-65
2022/07/28 09:13:53;;;;;;;0.10;0.10;;;;;;;21.53;52.98;101095.19;7363718;19;20014;-64
2022/07/28 09:16:18;;;;;;;0.00;0.00;;;;;;;21.59;51.72;101094.78;7364986;19;20011;-65
2022/07/28 09:18:44;;;;;;;0.10;0.10;;;;;;;21.63;52.56;101091.00;7362369;19;20018;-66
2022/07/28 09:21:13;;;;;;;0.00;0.00;;;;;;;21.75;52.93;101095.56;7365379;19;20014;-64
2022/07/28 09:23:45;;;;;;;0.00;0.00;;;;;;;21.84;52.82;101089.63;7360703;19;20041;-65
2022/07/28 09:26:11;;;;;;;0.10;0.10;;;;;;;21.91;52.38;101085.66;7363023;19;20010;-64
2022/07/28 09:28:51;;;;;;;0.00;0.00;;;;;;;22.13;52.71;101086.94;7362573;19;20026;-65
2022/07/28 09:31:18;;;;;;;0.00;0.00;;;;;;;22.21;52.00;101082.84;7361327;19;20010;-65
2022/07/28 09:33:59;;;;;;;0.00;0.00;;;;;;;22.47;52.18;101078.47;7364377;19;20033;-65
2022/07/28 09:36:25;;;;;;;0.00;0.00;;;;;;;22.66;51.20;101074.59;7364455;19;20466;-65
2022/07/28 09:38:51;;;;;;;0.05;0.05;;;;;;;22.97;51.36;101070.72;7362430;19;20019;-65
2022/07/28 09:41:22;;;;;;;0.10;0.10;;;;;;;23.23;50.32;101063.56;7363377;19;20010;-65
2022/07/28 09:43:49;;;;;;;0.00;0.00;;;;;;;23.50;48.83;101052.78;7362292;19;20549;-65
2022/07/28 09:46:15;;;;;;;;;;;;;;;24.05;51.53;101071.00;7364585;19;20074;-65
2022/07/28 09:48:53;;;;;;;0.10;0.10;;;;;;;24.40;50.57;101070.25;7364611;19;19926;-64
2022/07/28 09:51:26;;;;;;;0.00;0.00;;;;;;;24.74;49.20;101073.91;7364059;19;20450;-65
2022/07/28 09:54:04;;;;;;;0.10;0.10;;;;;;;24.89;47.93;101066.53;7362127;19;20018;-64
2022/07/28 09:56:30;;;;;;;0.10;0.10;;;;;;;25.07;46.75;101070.47;7358285;19;20007;-64
2022/07/28 09:58:58;;;;;;;0.10;0.10;;;;;;;25.15;47.79;101066.34;7352185;19;21353;-66
2022/07/28 10:01:24;;;;;;;0.10;0.10;;;;;;;25.25;47.18;101073.53;7360747;19;20033;-64
2022/07/28 10:03:55;;;;;;;0.08;0.08;;;;;;;25.45;47.71;101047.91;7358317;19;20094;-65
2022/07/28 10:06:36;;;;;;;0.10;0.10;;;;;;;25.93;47.98;101069.00;7360574;19;20026;-65
2022/07/28 10:09:06;;;;;;;0.10;0.10;;;;;;;26.19;47.01;101047.28;7359598;19;20035;-65
2022/07/28 10:11:31;;;;;;;0.10;0.10;;;;;;;26.55;45.49;101054.94;7359396;19;20006;-65
2022/07/28 10:14:01;;;;;;;0.10;0.10;;;;;;;26.90;45.95;101061.81;7355056;19;20508;-65
2022/07/28 10:16:31;;;;;;;0.10;0.10;;;;;;;27.03;44.47;101065.16;7355807;19;20006;-66
2022/07/28 10:18:59;;;;;;;0.10;0.10;;;;;;;27.09;43.62;101064.66;7355792;19;20014;-65
2022/07/28 10:21:25;;;;;;;0.00;0.00;;;;;;;27.11;42.67;101067.19;7354554;19;20027;-65
2022/07/28 10:23:57;;;;;;;0.00;0.00;;;;;;;27.16;44.67;101064.94;7355676;19;20081;-65
2022/07/28 10:26:37;;;;;;;0.10;0.10;;;;;;;27.10;44.62;101063.66;7350224;19;20047;-65
2022/07/28 10:29:07;;;;;;;0.10;0.10;;;;;;;26.95;44.14;101072.97;7361869;19;20676;-65
2022/07/28 10:31:39;;;;;;;0.10;0.10;;;;;;;26.84;44.31;101081.09;7354811;19;20052;-66
2022/07/28 10:34:08;;;;;;;0.10;0.10;;;;;;;26.69;43.62;101077.03;7361264;19;20018;-65
2022/07/28 10:36:34;;;;;;;0.00;0.00;;;;;;;26.53;43.63;101089.06;7352348;19;20006;-65
2022/07/28 10:39:17;;;;;;;0.10;0.10;;;;;;;26.44;44.79;101084.47;7359554;19;20933;-65
2022/07/28 10:41:43;;;;;;;0.00;0.00;;;;;;;26.20;43.18;101081.94;7353679;19;20025;-64
2022/07/28 10:44:12;;;;;;;0.10;0.10;;;;;;;26.07;44.92;101079.44;7363370;19;20010;-65
2022/07/28 10:46:40;;;;;;;0.10;0.10;;;;;;;25.96;44.14;101086.66;7355981;19;20871;-65
2022/07/28 10:49:07;;;;;;;0.10;0.10;;;;;;;25.81;43.77;101081.56;7358919;19;20031;-65
2022/07/28 10:51:32;;;;;;;;;;;;;;;25.91;45.95;101087.03;7359179;19;20817;-65
2022/07/28 10:53:57;;;;;;;0.00;0.00;;;;;;;25.80;44.04;101084.34;7358801;19;19917;-66
2022/07/28 10:56:54;;;;;;;0.00;0.00;;;;;;;25.91;45.38;101081.69;7360055;19;20011;-64
2022/07/28 10:59:38;;;;;;;0.10;0.10;;;;;;;25.94;45.51;101078.72;7250296;19;2004512;-65
2022/07/28 11:02:04;;;;;;;0.10;0.10;;;;;;;25.89;44.51;101078.25;7352209;19;20626;-64
2022/07/28 11:04:51;;;;;;;0.10;0.10;;;;;;;26.01;44.60;101082.63;7355228;19;20017;-66
2022/07/28 11:07:17;;;;;;;0.10;0.10;;;;;;;25.94;44.47;101076.06;7253380;19;2004466;-65
2022/07/28 11:09:46;;;;;;;0.10;0.10;;;;;;;25.97;44.66;101089.19;7351431;19;20881;-64
2022/07/28 11:12:14;;;;;;;0.10;0.10;;;;;;;25.96;44.09;101074.13;7353563;19;20003;-65
2022/07/28 11:14:41;;;;;;;0.10;0.10;;;;;;;26.06;44.83;101084.94;7360678;19;20355;-66
2022/07/28 11:17:06;;;;;;;;;;;;;;;26.33;46.57;101082.66;7352153;19;20017;-65
2022/07/28 11:19:43;;;;;;;0.20;0.20;;;;;;;26.68;45.42;101084.22;7361479;19;19915;-65
2022/07/28 11:22:18;;;;;;;0.10;0.10;;;;;;;27.22;44.67;101082.34;7359568;19;20097;-65
2022/07/28 11:24:59;;;;;;;0.10;0.10;;;;;;;27.93;44.29;101081.38;7356761;19;20052;-65
2022/07/28 11:27:45;;;;;;;0.10;0.10;;;;;;;28.53;43.41;101084.00;7363535;19;20025;-65
2022/07/28 11:30:11;;;;;;;0.10;0.10;;;;;;;28.81;40.65;101078.75;7367476;19;20548;-65
2022/07/28 11:32:55;;;;;;;0.00;0.00;;;;;;;29.23;42.25;101083.78;7370050;19;20098;-65
2022/07/28 11:35:25;;;;;;;0.10;0.10;;;;;;;29.34;40.32;101081.75;7367555;19;20025;-65
2022/07/28 11:37:59;;;;;;;0.10;0.10;;;;;;;29.57;40.76;101076.88;7364867;19;19999;-64